Time;durP1;ratioP1;P1;durP2;ratioP2;P2;SDS_P1;SDS_P2;PMS_P1;PMS_P2;Temp;Humidity;BMP_temperature;BMP_pressure;BME280_temperature;BME280_humidity;BME280_pressure;Samples;Min_cycle;Max_cycle;Signal;HPM_P1;HPM_P2
2022/10/13 00:01:51;;;;;;;47.90;26.68;;;;;;;3.90;74.64;101169.02;2045205;85;33414;-66
2022/10/13 00:04:52;;;;;;;47.20;25.25;;;;;;;3.86;74.61;101172.15;1995492;87;29740;-66
2022/10/13 00:07:54;;;;;;;42.48;23.85;;;;;;;3.84;74.80;101162.42;1977058;89;27715;-66
2022/10/13 00:10:55;;;;;;;43.70;23.47;;;;;;;3.82;75.02;101165.53;2048018;85;29107;-66
2022/10/13 00:14:00;;;;;;;45.52;22.40;;;;;;;3.81;75.13;101169.97;1994985;88;32302;-66
2022/10/13 00:17:01;;;;;;;;;;;;;;;3.80;75.12;101165.55;1980716;88;33067;-66
2022/10/13 00:20:05;;;;;;;40.75;23.18;;;;;;;3.79;75.38;101163.80;1986913;89;29501;-66
2022/10/13 00:23:07;;;;;;;40.30;22.45;;;;;;;3.77;75.43;101165.57;2007180;87;27853;-66
2022/10/13 00:26:12;;;;;;;39.23;22.93;;;;;;;3.76;75.46;101160.73;2014583;86;29901;-66
2022/10/13 00:29:14;;;;;;;40.12;23.12;;;;;;;3.75;75.48;101149.70;2074451;83;31911;-66
2022/10/13 00:32:15;;;;;;;42.35;23.62;;;;;;;3.74;75.58;101151.02;2062769;84;33057;-66
2022/10/13 00:35:17;;;;;;;46.85;25.12;;;;;;;3.73;75.47;101154.55;2057043;85;30464;-66
2022/10/13 00:38:21;;;;;;;39.92;22.93;;;;;;;3.70;75.44;101150.62;2073172;83;27796;-66
2022/10/13 00:41:22;;;;;;;37.63;22.20;;;;;;;3.68;75.48;101151.94;2060704;84;29435;-66
2022/10/13 00:44:58;;;;;;;42.17;22.50;;;;;;;3.66;75.61;101147.09;2071102;83;33153;-66
2022/10/13 00:48:00;;;;;;;48.40;22.65;;;;;;;3.70;76.30;101144.00;2064344;84;33819;-67
2022/10/13 00:51:02;;;;;;;40.28;22.30;;;;;;;3.70;76.20;101145.33;2060449;85;29422;-67
2022/10/13 00:54:05;;;;;;;42.70;23.42;;;;;;;3.72;76.28;101151.04;2030149;86;27767;-67
2022/10/13 00:57:07;;;;;;;41.77;22.65;;;;;;;3.71;76.33;101147.95;2047360;85;29931;-68
2022/10/13 01:00:11;;;;;;;42.08;22.75;;;;;;;3.73;76.54;101150.58;2051107;85;31057;-68
2022/10/13 01:03:12;;;;;;;45.05;21.40;;;;;;;3.74;76.63;101143.96;2031117;86;33027;-67
2022/10/13 01:06:15;;;;;;;45.30;22.00;;;;;;;3.74;76.36;101137.34;2044493;86;29361;-68
2022/10/13 01:09:16;;;;;;;40.52;22.05;;;;;;;3.72;76.28;101137.78;2050260;85;28395;-67
2022/10/13 01:12:31;;;;;;;39.98;21.52;;;;;;;3.72;76.32;101127.65;2038393;86;28699;-67
2022/10/13 01:15:39;;;;;;;42.90;22.10;;;;;;;3.72;76.68;101136.46;2035938;86;31189;-67
2022/10/13 01:19:07;;;;;;;46.63;23.73;;;;;;;3.75;77.09;101135.55;2018371;86;32930;-67
2022/10/13 01:22:36;;;;;;;43.45;26.15;;;;;;;3.76;77.30;101132.91;2033471;86;29775;-66
2022/10/13 01:26:16;;;;;;;41.28;24.90;;;;;;;3.82;77.55;101132.41;2004995;85;27825;-66
2022/10/13 01:29:47;;;;;;;48.87;23.42;;;;;;;3.84;77.32;101130.62;2042237;86;30122;-66
2022/10/13 01:33:09;;;;;;;49.58;23.15;;;;;;;3.82;77.06;101125.77;1980084;88;32341;-66
2022/10/13 01:36:34;;;;;;;46.58;27.55;;;;;;;3.81;77.23;101123.58;1977727;88;33412;-66
2022/10/13 01:39:43;;;;;;;39.93;19.80;;;;;;;3.80;77.31;101116.09;1936754;89;28762;-66
2022/10/13 01:42:58;;;;;;;40.52;24.18;;;;;;;3.79;77.35;101111.69;1899201;91;27907;-66
2022/10/13 01:46:10;;;;;;;48.87;26.45;;;;;;;3.78;77.12;101108.59;1930716;91;30804;-67
2022/10/13 01:49:16;;;;;;;41.37;25.20;;;;;;;3.76;77.22;101111.70;1929604;90;32316;-66
2022/10/13 01:52:19;;;;;;;54.63;28.87;;;;;;;3.76;77.23;101110.81;1919411;89;33721;-67
2022/10/13 01:55:21;;;;;;;54.25;28.60;;;;;;;3.75;77.29;101105.07;1936766;90;30601;-68
2022/10/13 01:58:27;;;;;;;57.80;30.17;;;;;;;3.77;77.64;101101.97;1937787;89;27780;-67
2022/10/13 02:02:02;;;;;;;46.55;26.82;;;;;;;3.78;77.72;101097.10;1941023;90;29178;-67
2022/10/13 02:05:24;;;;;;;52.20;28.47;;;;;;;3.79;77.82;101095.78;1986660;87;31102;-67
2022/10/13 02:08:37;;;;;;;53.52;27.25;;;;;;;3.81;77.91;101095.75;2044438;85;34316;-67
2022/10/13 02:11:44;;;;;;;43.42;24.75;;;;;;;3.82;77.89;101089.56;2088511;83;29284;-67
2022/10/13 02:14:48;;;;;;;46.20;24.98;;;;;;;3.81;77.68;101094.43;2077045;84;28309;-67
2022/10/13 02:17:51;;;;;;;54.38;29.57;;;;;;;3.80;77.49;101088.70;2056657;83;28673;-67
2022/10/13 02:20:53;;;;;;;49.80;28.15;;;;;;;3.77;77.87;101084.31;2082949;83;30530;-67
2022/10/13 02:23:54;;;;;;;61.30;31.17;;;;;;;3.78;77.88;101083.42;2056828;84;34096;-67
2022/10/13 02:26:56;;;;;;;51.33;27.87;;;;;;;3.80;78.16;101086.05;2083111;84;30578;-67
2022/10/13 02:29:59;;;;;;;53.87;30.50;;;;;;;3.83;78.29;101082.48;2092331;84;27696;-68
2022/10/13 02:33:01;;;;;;;48.70;30.45;;;;;;;3.85;78.56;101079.38;2069627;85;28645;-67
2022/10/13 02:36:03;;;;;;;62.80;31.93;;;;;;;3.88;78.84;101080.25;2069300;84;31914;-67
2022/10/13 02:39:09;;;;;;;54.45;32.58;;;;;;;3.91;78.77;101083.30;2053244;83;33874;-67
2022/10/13 02:42:11;;;;;;;57.85;31.62;;;;;;;3.93;78.82;101085.50;2030799;85;30246;-67
2022/10/13 02:45:12;;;;;;;51.70;32.33;;;;;;;3.95;78.75;101087.69;2007944;87;27735;-67
2022/10/13 02:48:14;;;;;;;54.05;30.90;;;;;;;3.96;78.78;101086.80;1995277;87;29510;-67
2022/10/13 02:51:15;;;;;;;55.88;31.15;;;;;;;3.97;79.00;101073.98;1981187;88;31468;-66
2022/10/13 02:54:17;;;;;;;53.45;29.70;;;;;;;3.99;79.05;101068.19;1973615;88;33192;-66
2022/10/13 02:57:18;;;;;;;57.33;30.65;;;;;;;4.00;79.02;101068.62;2012069;86;29731;-67
2022/10/13 03:00:19;;;;;;;56.13;31.10;;;;;;;4.01;79.05;101063.75;2047337;86;27730;-66
2022/10/13 03:03:21;;;;;;;51.23;30.62;;;;;;;4.05;79.13;101072.58;2050167;86;29085;-67
2022/10/13 03:06:23;;;;;;;49.48;30.92;;;;;;;4.05;79.03;101072.11;2018674;86;31565;-67
2022/10/13 03:09:24;;;;;;;57.23;28.90;;;;;;;4.06;79.00;101071.65;2019268;86;32758;-67
2022/10/13 03:12:26;;;;;;;50.08;28.42;;;;;;;4.07;78.89;101074.30;1990119;87;30578;-67
2022/10/13 03:15:27;;;;;;;55.12;29.57;;;;;;;4.05;78.70;101076.09;2012366;87;27722;-67
2022/10/13 03:18:29;;;;;;;50.38;30.10;;;;;;;4.05;78.69;101071.25;2001471;87;28422;-67
2022/10/13 03:21:30;;;;;;;56.73;29.82;;;;;;;4.02;78.61;101071.27;2000624;87;30485;-67
2022/10/13 03:24:31;;;;;;;52.03;29.45;;;;;;;4.01;78.88;101069.52;2060868;85;33073;-68
2022/10/13 03:27:32;;;;;;;49.70;29.87;;;;;;;4.02;78.97;101073.92;2074903;84;29993;-68
2022/10/13 03:30:34;;;;;;;53.73;29.37;;;;;;;4.01;79.00;101073.03;2080903;83;28439;-68
2022/10/13 03:33:35;;;;;;;49.73;27.67;;;;;;;4.02;78.91;101067.30;2072671;84;28683;-67
2022/10/13 03:36:37;;;;;;;50.20;29.40;;;;;;;4.00;78.73;101071.27;2068871;83;31080;-67
2022/10/13 03:39:38;;;;;;;55.67;30.45;;;;;;;4.00;78.86;101074.38;2059679;84;34207;-65
2022/10/13 03:42:40;;;;;;;54.53;30.82;;;;;;;3.98;78.90;101069.54;2011555;87;30619;-66
2022/10/13 03:45:41;;;;;;;55.60;30.10;;;;;;;3.96;78.94;101065.59;1966214;88;27859;-65
2022/10/13 03:48:43;;;;;;;59.38;29.55;;;;;;;3.95;78.89;101071.32;2042858;85;29092;-66
2022/10/13 03:51:45;;;;;;;52.50;30.35;;;;;;;3.95;78.94;101058.53;2045880;85;31912;-66
2022/10/13 03:54:46;;;;;;;48.80;29.37;;;;;;;3.94;79.05;101060.28;2043741;85;34168;-66
2022/10/13 03:57:47;;;;;;;54.25;30.50;;;;;;;3.93;79.06;101058.52;2001747;87;29412;-66
2022/10/13 04:00:50;;;;;;;51.83;30.40;;;;;;;3.94;79.24;101060.28;2012431;87;27662;-66
2022/10/13 04:03:54;;;;;;;62.03;29.32;;;;;;;3.96;79.24;101061.61;2005579;87;29993;-66
2022/10/13 04:06:55;;;;;;;48.87;29.70;;;;;;;3.95;79.09;101062.51;1958837;89;32259;-66
2022/10/13 04:09:57;;;;;;;47.65;28.73;;;;;;;3.95;79.13;101062.51;2071416;84;32979;-66
2022/10/13 04:12:58;;;;;;;56.05;29.85;;;;;;;3.95;79.10;101062.51;2078626;84;30307;-65
2022/10/13 04:16:06;;;;;;;57.58;30.55;;;;;;;3.93;78.99;101058.98;2065749;83;27770;-66
2022/10/13 04:19:09;;;;;;;55.48;30.88;;;;;;;3.92;79.16;101053.25;2084010;84;28681;-66
2022/10/13 04:22:11;;;;;;;51.75;29.50;;;;;;;3.92;79.28;101050.60;2089472;83;32341;-66
2022/10/13 04:25:12;;;;;;;60.70;31.95;;;;;;;3.92;79.28;101050.14;2083325;83;33404;-67
2022/10/13 04:28:14;;;;;;;49.60;29.75;;;;;;;3.91;79.29;101052.82;2054714;84;30488;-66
2022/10/13 04:31:16;;;;;;;62.98;34.83;;;;;;;3.90;79.24;101053.25;2090842;83;27702;-67
2022/10/13 04:34:17;;;;;;;49.33;29.85;;;;;;;3.88;79.11;101055.06;2073992;83;28714;-67
2022/10/13 04:37:18;;;;;;;50.80;29.48;;;;;;;3.88;79.19;101048.86;2082002;83;31893;-67
2022/10/13 04:40:19;;;;;;;55.90;30.17;;;;;;;3.86;79.26;101052.88;2009610;87;33437;-66
2022/10/13 04:43:21;;;;;;;56.68;29.27;;;;;;;3.85;79.28;101052.44;1985979;88;28823;-66
2022/10/13 04:46:25;;;;;;;60.55;32.23;;;;;;;3.85;79.27;101053.77;1981103;89;27677;-67
2022/10/13 04:49:27;;;;;;;55.33;30.88;;;;;;;3.84;79.37;101055.98;2043465;85;29570;-66
2022/10/13 04:52:28;;;;;;;60.25;32.00;;;;;;;3.84;79.27;101051.11;2002865;87;32071;-67
2022/10/13 04:55:29;;;;;;;62.53;34.80;;;;;;;3.82;79.37;101056.44;2038138;85;33027;-66
2022/10/13 04:58:30;;;;;;;66.42;34.38;;;;;;;3.83;79.34;101055.97;2039709;85;28822;-66
2022/10/13 05:01:33;;;;;;;64.85;33.10;;;;;;;3.82;79.48;101048.48;2038952;85;27771;-66
2022/10/13 05:04:35;;;;;;;66.47;39.15;;;;;;;3.82;79.50;101051.13;2007574;87;29328;-66
2022/10/13 05:07:36;;;;;;;74.03;40.33;;;;;;;3.82;79.62;101045.83;2023844;86;31487;-66
2022/10/13 05:10:37;;;;;;;98.70;55.98;;;;;;;3.83;79.79;101049.34;2046528;86;34100;-66
2022/10/13 05:13:39;;;;;;;106.67;65.90;;;;;;;3.84;79.70;101049.35;2005090;87;30366;-66
2022/10/13 05:16:40;;;;;;;84.35;53.10;;;;;;;3.84;79.80;101045.80;2071075;84;27693;-66
2022/10/13 05:19:41;;;;;;;71.25;39.25;;;;;;;3.85;79.84;101043.59;2073634;85;28676;-66
2022/10/13 05:22:43;;;;;;;69.20;38.67;;;;;;;3.85;79.93;101040.51;2043413;83;31464;-66
2022/10/13 05:25:44;;;;;;;65.40;36.80;;;;;;;3.86;79.97;101039.62;2043338;85;33383;-66
2022/10/13 05:28:46;;;;;;;63.50;35.50;;;;;;;3.87;80.02;101032.09;2054124;86;29389;-67
2022/10/13 05:31:47;;;;;;;68.67;37.75;;;;;;;3.90;80.19;101039.99;2058151;85;27698;-66
2022/10/13 05:34:48;;;;;;;58.05;36.17;;;;;;;3.91;80.17;101037.78;2058351;85;28702;-66
2022/10/13 05:37:49;;;;;;;77.55;43.33;;;;;;;3.94;80.27;101029.80;2051386;86;31534;-64
2022/10/13 05:40:50;;;;;;;67.17;37.15;;;;;;;3.97;80.26;101031.98;2048962;85;32889;-65
2022/10/13 05:43:57;;;;;;;62.03;35.58;;;;;;;4.01;80.35;101037.23;2043329;85;29733;-66
2022/10/13 05:46:59;;;;;;;56.20;33.45;;;;;;;4.05;80.43;101034.99;2016327;87;27807;-65
2022/10/13 05:50:01;;;;;;;74.80;45.95;;;;;;;4.08;80.47;101030.09;2016308;87;30070;-65
2022/10/13 05:53:02;;;;;;;74.45;45.40;;;;;;;4.12;80.42;101029.63;2009356;87;31561;-65
2022/10/13 05:56:09;;;;;;;71.80;39.15;;;;;;;4.18;80.44;101036.17;2026135;86;34161;-65
2022/10/13 05:59:13;;;;;;;65.90;36.33;;;;;;;4.23;80.62;101031.70;1989818;87;29359;-65
2022/10/13 06:02:16;;;;;;;71.85;37.40;;;;;;;4.30;80.65;101024.55;2013731;87;27730;-64
2022/10/13 06:08:33;;;;;;;62.33;36.65;;;;;;;4.44;80.89;101024.39;2068041;84;27741;-65
2022/10/13 06:11:34;;;;;;;68.35;37.75;;;;;;;4.53;81.03;101022.94;2062715;84;33851;-66
2022/10/13 06:14:36;;;;;;;66.90;37.15;;;;;;;4.59;80.90;101019.32;2075000;84;29471;-66
2022/10/13 06:17:38;;;;;;;66.45;37.93;;;;;;;4.66;80.91;101018.35;2074400;84;28429;-66
2022/10/13 06:20:39;;;;;;;77.22;36.75;;;;;;;4.73;81.01;101009.86;2035649;86;28741;-66
2022/10/13 06:23:41;;;;;;;64.20;35.00;;;;;;;4.82;80.96;101015.02;2078603;83;31392;-66
2022/10/13 06:26:42;;;;;;;66.97;36.20;;;;;;;4.90;80.75;101022.44;2093398;83;33332;-66
2022/10/13 06:29:43;;;;;;;64.37;36.65;;;;;;;4.98;80.69;101017.02;2093079;83;29735;-65
2022/10/13 06:32:44;;;;;;;66.02;38.25;;;;;;;5.07;80.71;101019.52;2086149;83;27793;-66
2022/10/13 06:35:46;;;;;;;66.25;35.88;;;;;;;5.17;80.71;101015.84;2085801;84;29844;-65
2022/10/13 06:38:47;;;;;;;63.38;36.20;;;;;;;5.28;80.87;101014.34;2092571;84;31530;-66
2022/10/13 06:41:49;;;;;;;70.85;38.88;;;;;;;5.40;80.72;101009.26;2081722;84;34158;-65
2022/10/13 06:44:51;;;;;;;73.83;39.03;;;;;;;5.54;80.81;101014.81;2086488;83;29822;-66
2022/10/13 06:47:55;;;;;;;62.17;37.38;;;;;;;5.67;80.84;101003.06;2085626;84;27668;-66
2022/10/13 06:51:01;;;;;;;;;;;;;;;5.82;80.72;101000.55;2083637;84;28706;-66
2022/10/13 06:54:03;;;;;;;68.55;38.88;;;;;;;5.98;80.81;100997.60;2042514;84;31515;-65
2022/10/13 06:57:05;;;;;;;73.65;38.45;;;;;;;6.13;80.77;100993.81;2057681;85;33580;-65
2022/10/13 07:00:08;;;;;;;68.45;40.15;;;;;;;6.29;80.65;100994.39;2047728;85;29360;-65
2022/10/13 07:03:10;;;;;;;64.67;37.40;;;;;;;6.43;80.64;100989.66;2066716;85;27700;-65
2022/10/13 07:06:11;;;;;;;65.97;38.98;;;;;;;6.63;80.61;100992.31;2086971;84;28718;-66
2022/10/13 07:09:13;;;;;;;67.32;38.85;;;;;;;6.83;80.49;100990.08;2090438;84;31462;-66
2022/10/13 07:12:20;;;;;;;64.15;37.25;;;;;;;7.06;80.55;100990.02;2079849;84;33403;-66
2022/10/13 07:15:25;;;;;;;63.28;36.75;;;;;;;7.30;80.32;100988.97;2093825;84;29356;-66
2022/10/13 07:18:26;;;;;;;66.85;38.53;;;;;;;7.51;79.95;100994.69;2083926;84;27736;-66
2022/10/13 07:21:28;;;;;;;54.80;36.85;;;;;;;7.71;79.88;100993.71;2081951;84;28675;-66
2022/10/13 07:24:29;;;;;;;59.25;36.70;;;;;;;7.96;79.23;100992.17;2118165;83;31427;-66
2022/10/13 07:27:30;;;;;;;68.05;36.00;;;;;;;8.16;79.24;100989.83;2121208;83;33387;-65
2022/10/13 07:30:32;;;;;;;58.60;35.25;;;;;;;8.41;78.74;100990.44;2120495;83;29397;-66
2022/10/13 07:33:33;;;;;;;58.75;35.30;;;;;;;8.58;78.48;100983.30;2121198;83;27678;-66
2022/10/13 07:36:36;;;;;;;64.05;37.25;;;;;;;8.83;78.75;100980.34;2123304;83;29892;-66
2022/10/13 07:39:37;;;;;;;60.08;34.78;;;;;;;9.08;78.35;100972.41;2119418;83;31067;-66
2022/10/13 07:42:38;;;;;;;59.40;34.78;;;;;;;9.33;77.90;100975.59;2121461;83;33394;-66
2022/10/13 07:45:40;;;;;;;52.55;31.82;;;;;;;9.55;77.65;100969.05;2118125;83;29109;-66
2022/10/13 07:48:41;;;;;;;56.33;32.17;;;;;;;9.73;77.09;100973.75;2120573;83;27857;-66
2022/10/13 07:51:43;;;;;;;78.05;39.80;;;;;;;9.96;76.72;100964.48;2108355;83;29084;-66
2022/10/13 07:54:45;;;;;;;51.42;30.68;;;;;;;10.10;76.11;100959.98;2077367;83;31924;-66
2022/10/13 07:57:46;;;;;;;53.25;30.30;;;;;;;10.22;75.64;100954.16;2080761;85;32722;-66
2022/10/13 08:00:59;;;;;;;56.70;30.08;;;;;;;10.40;75.62;100957.09;2055918;85;30527;-66
2022/10/13 08:04:00;;;;;;;53.83;31.25;;;;;;;10.52;75.45;100949.92;2073676;85;27745;-66
2022/10/13 08:07:03;;;;;;;50.85;30.85;;;;;;;10.72;75.18;100948.27;2079193;85;29041;-66
2022/10/13 08:10:06;;;;;;;51.25;28.90;;;;;;;10.83;74.96;100952.75;2081413;85;31057;-66
2022/10/13 08:13:10;;;;;;;54.70;30.02;;;;;;;10.95;75.01;100946.00;2074520;85;33045;-66
2022/10/13 08:16:11;;;;;;;51.17;31.30;;;;;;;11.05;74.08;100942.47;2073425;85;29451;-66
2022/10/13 08:19:15;;;;;;;53.65;30.43;;;;;;;11.07;73.77;100940.16;2075591;85;27763;-66
2022/10/13 08:22:16;;;;;;;55.15;28.32;;;;;;;11.06;73.14;100929.47;2096173;83;28084;-66
2022/10/13 08:25:17;;;;;;;46.98;27.42;;;;;;;11.09;73.43;100935.57;2116315;83;31050;-66
2022/10/13 08:28:27;;;;;;;44.50;28.00;;;;;;;11.15;73.45;100934.47;2122297;83;33365;-66
2022/10/13 08:31:28;;;;;;;50.17;28.60;;;;;;;11.26;73.49;100929.97;2119473;83;30160;-66
2022/10/13 08:34:29;;;;;;;50.23;28.77;;;;;;;11.33;73.01;100926.10;2121311;83;27794;-66
2022/10/13 08:37:31;;;;;;;48.05;27.30;;;;;;;11.43;73.21;100925.69;2123507;83;29108;-66
2022/10/13 08:40:33;;;;;;;48.85;26.90;;;;;;;11.58;73.06;100922.83;2118731;83;31718;-66
2022/10/13 08:43:35;;;;;;;45.15;26.87;;;;;;;11.67;72.57;100924.64;2118969;83;34141;-65
2022/10/13 08:46:47;;;;;;;55.95;29.00;;;;;;;11.79;72.60;100921.88;2122386;83;29116;-65
2022/10/13 08:49:49;;;;;;;41.05;24.67;;;;;;;11.89;71.53;100922.80;2120092;83;27618;-66
2022/10/13 08:53:00;;;;;;;43.48;25.75;;;;;;;11.96;71.90;100914.87;2089795;83;28649;-66
2022/10/13 08:56:19;;;;;;;41.80;26.02;;;;;;;12.09;71.86;100916.54;2076361;85;32218;-65
2022/10/13 08:59:21;;;;;;;43.13;22.82;;;;;;;12.16;71.16;100914.84;2074166;85;34176;-66
2022/10/13 09:02:30;;;;;;;40.95;24.12;;;;;;;12.25;70.54;100909.52;2076466;85;29814;-66
2022/10/13 09:05:43;;;;;;;39.25;25.15;;;;;;;12.37;71.16;100906.72;2078853;85;27689;-67
2022/10/13 09:08:53;;;;;;;42.03;24.57;;;;;;;12.56;71.28;100909.88;2080969;84;29504;-66
2022/10/13 09:11:54;;;;;;;38.92;23.90;;;;;;;12.70;70.35;100903.36;2074524;85;31935;-66
2022/10/13 09:15:10;;;;;;;38.50;22.98;;;;;;;12.83;70.60;100903.63;2067380;85;33412;-65
2022/10/13 09:18:13;;;;;;;39.25;21.50;;;;;;;12.93;69.86;100906.74;2075137;85;29353;-65
2022/10/13 09:21:22;;;;;;;34.40;19.32;;;;;;;13.05;70.05;100891.81;2088521;83;27807;-65
2022/10/13 09:24:25;;;;;;;38.10;21.42;;;;;;;13.19;69.29;100894.67;2122378;83;28861;-64
2022/10/13 09:27:27;;;;;;;31.15;19.87;;;;;;;13.27;68.19;100892.04;2111152;83;31049;-65
2022/10/13 09:30:40;;;;;;;37.65;20.88;;;;;;;13.33;68.51;100894.42;2118194;83;33354;-65
2022/10/13 09:33:41;;;;;;;34.88;18.05;;;;;;;13.40;68.22;100894.55;2120440;83;29426;-65
2022/10/13 09:37:05;;;;;;;29.80;17.00;;;;;;;13.49;68.44;100892.71;2118281;83;27735;-65
2022/10/13 09:40:21;;;;;;;27.95;15.95;;;;;;;13.59;68.01;100887.72;2118286;83;29476;-67
2022/10/13 09:43:30;;;;;;;30.20;17.37;;;;;;;13.69;67.81;100881.37;2119081;83;31052;-65
2022/10/13 09:46:37;;;;;;;28.87;16.85;;;;;;;13.81;67.98;100881.19;2121881;83;33006;-65
2022/10/13 09:49:42;;;;;;;31.00;17.42;;;;;;;13.91;66.93;100880.19;2120959;83;29359;-65
2022/10/13 09:52:46;;;;;;;33.02;17.25;;;;;;;13.98;67.20;100881.61;2090852;83;27827;-65
2022/10/13 09:55:48;;;;;;;32.38;18.27;;;;;;;14.08;67.63;100873.89;2118789;83;29101;-65
2022/10/13 09:59:13;;;;;;;39.08;20.75;;;;;;;14.13;65.36;100865.94;2117480;83;31014;-65
2022/10/13 10:02:23;;;;;;;41.68;22.35;;;;;;;14.17;66.41;100869.82;2119747;83;33398;-65
2022/10/13 10:05:45;;;;;;;32.05;19.70;;;;;;;14.26;66.43;100864.79;2119272;83;29334;-65
2022/10/13 10:09:02;;;;;;;29.75;18.12;;;;;;;14.36;64.77;100857.05;2122466;83;37253;-65
2022/10/13 10:12:05;;;;;;;34.23;15.75;;;;;;;14.36;64.77;100857.05;2117155;83;29923;-65
2022/10/13 10:15:20;;;;;;;31.48;15.28;;;;;;;14.41;65.58;100867.08;2119879;83;31521;-65
2022/10/13 10:18:34;;;;;;;;;;;;;;;14.33;65.83;100828.03;2116780;83;34211;-65
2022/10/13 10:22:02;;;;;;;35.52;18.35;;;;;;;14.47;64.58;100825.45;2058617;84;29770;-65
2022/10/13 10:25:18;;;;;;;24.82;15.50;;;;;;;14.47;64.58;100825.45;2029323;86;27828;-65
2022/10/13 10:28:34;;;;;;;26.20;13.03;;;;;;;14.60;64.44;100841.77;2005793;86;29946;-64
2022/10/13 10:31:56;;;;;;;27.85;14.43;;;;;;;14.66;64.04;100840.07;1990167;87;31165;-65
2022/10/13 10:35:15;;;;;;;21.23;13.90;;;;;;;14.77;64.10;100826.45;2065339;85;34128;-65
2022/10/13 10:38:43;;;;;;;22.15;13.35;;;;;;;14.77;64.10;100826.45;2086390;84;29730;-66
2022/10/13 10:42:15;;;;;;;23.98;12.73;;;;;;;14.91;64.02;100818.41;2081477;84;27620;-66
2022/10/13 10:45:24;;;;;;;20.72;12.73;;;;;;;14.91;64.02;100818.41;2087219;84;30917;-66
2022/10/13 10:48:35;;;;;;;21.57;13.28;;;;;;;15.01;63.90;100814.22;2079052;84;30998;-66
2022/10/13 10:51:38;;;;;;;26.57;13.45;;;;;;;15.06;63.99;100800.94;2079470;84;29571;-66
2022/10/13 10:54:51;;;;;;;28.10;14.10;;;;;;;15.16;63.79;100798.06;2117862;83;29382;-64
2022/10/13 10:58:25;;;;;;;20.40;12.37;;;;;;;15.21;63.78;100795.95;2127207;83;27738;-65
2022/10/13 11:01:37;;;;;;;23.45;13.25;;;;;;;15.22;63.96;100781.50;2122973;83;28735;-65
2022/10/13 11:04:47;;;;;;;20.10;11.95;;;;;;;15.38;63.71;100791.35;2124224;83;31198;-66
2022/10/13 11:08:01;;;;;;;21.87;11.88;;;;;;;15.33;63.55;100768.66;2127303;83;33022;-65
2022/10/13 11:11:27;;;;;;;22.30;11.83;;;;;;;15.50;63.13;100785.17;2125198;83;29457;-66
2022/10/13 11:14:30;;;;;;;22.27;11.53;;;;;;;15.56;63.07;100781.22;2126796;83;27686;-66
2022/10/13 11:17:38;;;;;;;24.77;13.55;;;;;;;15.58;61.76;100773.89;2127501;83;29048;-66
2022/10/13 11:20:47;;;;;;;24.23;11.15;;;;;;;15.58;61.97;100763.94;2121041;83;31848;-66
2022/10/13 11:23:49;;;;;;;20.62;11.12;;;;;;;15.61;61.59;100760.20;2126882;83;33342;-66
2022/10/13 11:26:51;;;;;;;19.00;11.05;;;;;;;15.67;62.46;100766.54;2084909;83;29904;-65
2022/10/13 11:29:57;;;;;;;19.23;12.10;;;;;;;15.74;62.18;100755.74;2080274;85;28076;-65
2022/10/13 11:33:07;;;;;;;28.38;15.63;;;;;;;15.78;62.03;100749.19;2080688;85;29486;-65
2022/10/13 11:36:57;;;;;;;22.85;13.03;;;;;;;15.84;61.82;100745.22;2074001;85;31183;-66
2022/10/13 11:40:24;;;;;;;17.55;10.85;;;;;;;15.88;61.84;100742.73;2081139;85;33536;-65
2022/10/13 11:43:46;;;;;;;24.85;13.98;;;;;;;15.93;61.49;100735.18;2072676;85;29739;-66
2022/10/13 11:47:05;;;;;;;20.17;11.55;;;;;;;15.97;61.52;100726.38;2077135;85;27756;-65
2022/10/13 11:50:29;;;;;;;23.30;10.18;;;;;;;16.01;60.83;100724.36;2081175;83;28690;-66
2022/10/13 11:53:45;;;;;;;18.00;9.98;;;;;;;16.04;61.20;100714.70;2069584;83;31044;-64
2022/10/13 11:56:56;;;;;;;16.77;10.35;;;;;;;16.08;61.43;100706.76;2082628;84;33087;-65
2022/10/13 11:59:58;;;;;;;23.67;9.48;;;;;;;16.14;60.69;100714.47;2007028;88;30403;-65
2022/10/13 12:03:00;;;;;;;18.17;9.88;;;;;;;16.18;60.80;100711.95;2027661;86;27713;-65
2022/10/13 12:06:06;;;;;;;22.77;13.00;;;;;;;16.22;61.04;100708.05;2042422;85;29633;-65
2022/10/13 12:09:19;;;;;;;16.45;9.63;;;;;;;16.27;60.96;100700.12;2048001;84;31083;-65
2022/10/13 12:12:22;;;;;;;17.73;10.25;;;;;;;16.31;60.21;100695.75;2044846;85;33059;-65
2022/10/13 12:15:40;;;;;;;15.15;8.45;;;;;;;16.35;59.86;100695.94;1998003;88;29386;-65
2022/10/13 12:18:49;;;;;;;15.05;8.33;;;;;;;16.38;60.21;100684.06;2019573;86;27742;-66
2022/10/13 12:21:58;;;;;;;15.72;8.13;;;;;;;16.42;60.08;100686.91;1898955;91;27902;-66
2022/10/13 12:25:08;;;;;;;15.58;8.58;;;;;;;16.46;59.37;100684.89;1936031;90;31110;-66
2022/10/13 12:28:15;;;;;;;16.62;8.80;;;;;;;16.48;60.09;100674.34;1842719;95;32748;-65
2022/10/13 12:31:24;;;;;;;17.57;9.35;;;;;;;16.53;60.05;100672.66;1843102;95;31175;-65
2022/10/13 12:34:31;;;;;;;18.50;9.65;;;;;;;16.56;59.55;100669.25;1844457;95;27910;-65
2022/10/13 12:37:36;;;;;;;16.80;8.53;;;;;;;16.59;59.89;100669.55;1891713;92;28835;-66
2022/10/13 12:40:38;;;;;;;16.77;7.70;;;;;;;16.63;59.64;100674.25;1900889;92;31159;-67
2022/10/13 12:43:40;;;;;;;18.32;10.98;;;;;;;16.65;59.52;100675.86;1889883;94;34407;-68
2022/10/13 12:46:50;;;;;;;13.55;7.10;;;;;;;16.68;59.44;100668.89;1857415;95;30549;-68
2022/10/13 12:49:51;;;;;;;12.78;6.58;;;;;;;16.71;59.15;100674.09;1874081;94;27968;-69
2022/10/13 12:53:07;;;;;;;16.35;7.78;;;;;;;16.76;59.21;100669.71;1845476;94;29718;-67
2022/10/13 12:56:31;;;;;;;15.00;6.35;;;;;;;16.78;59.32;100665.06;1835264;95;31116;-66
2022/10/13 12:59:33;;;;;;;12.85;6.78;;;;;;;16.81;59.44;100662.62;1884070;93;34328;-67
2022/10/13 13:02:34;;;;;;;13.10;6.67;;;;;;;16.85;59.40;100662.79;1883511;92;29368;-67
2022/10/13 13:05:43;;;;;;;14.40;6.60;;;;;;;16.86;58.79;100660.00;1890594;93;28500;-67
2022/10/13 13:08:44;;;;;;;17.40;9.38;;;;;;;16.90;59.13;100662.45;1850849;95;28719;-65
2022/10/13 13:11:46;;;;;;;17.27;7.95;;;;;;;16.91;59.10;100660.13;1876050;94;31451;-66
2022/10/13 13:14:52;;;;;;;13.15;7.08;;;;;;;16.91;59.04;100662.38;1874995;93;34155;-65
2022/10/13 13:17:54;;;;;;;13.08;7.75;;;;;;;16.93;58.82;100660.89;1902465;92;29470;-65
2022/10/13 13:20:55;;;;;;;15.50;9.03;;;;;;;16.92;58.47;100661.87;1889533;92;27841;-65
2022/10/13 13:23:57;;;;;;;12.45;7.15;;;;;;;16.91;58.41;100657.42;1900508;90;29584;-66
2022/10/13 13:26:59;;;;;;;14.00;7.95;;;;;;;16.92;58.28;100655.10;2020422;87;32253;-65
2022/10/13 13:30:00;;;;;;;15.43;7.97;;;;;;;16.92;58.35;100652.39;2019120;87;33096;-66
2022/10/13 13:33:01;;;;;;;18.15;8.08;;;;;;;16.92;58.28;100650.57;2018507;87;29686;-66
2022/10/13 13:36:03;;;;;;;17.37;7.45;;;;;;;16.93;57.84;100651.42;2023330;85;27733;-66
2022/10/13 13:39:12;;;;;;;14.55;8.50;;;;;;;16.95;57.97;100650.86;2075692;85;29039;-66
2022/10/13 13:42:16;;;;;;;16.37;7.90;;;;;;;16.95;57.38;100646.80;2074155;85;31070;-66
2022/10/13 13:45:21;;;;;;;15.98;7.22;;;;;;;16.94;57.65;100645.04;2077846;85;33123;-67
2022/10/13 13:48:25;;;;;;;15.23;7.53;;;;;;;16.94;57.27;100635.56;2056113;85;29347;-67
2022/10/13 13:51:32;;;;;;;12.63;7.55;;;;;;;16.93;57.60;100632.48;2006278;87;28449;-65
2022/10/13 13:54:33;;;;;;;16.33;8.20;;;;;;;16.93;57.74;100629.77;2006833;88;29110;-65
2022/10/13 13:57:36;;;;;;;17.98;8.25;;;;;;;16.91;57.44;100629.01;2024215;87;30806;-66
2022/10/13 14:00:37;;;;;;;11.33;7.72;;;;;;;16.90;57.12;100623.22;2033500;86;33851;-66
2022/10/13 14:03:39;;;;;;;14.35;7.65;;;;;;;16.88;57.43;100616.58;2020405;87;30561;-67
2022/10/13 14:06:40;;;;;;;14.05;8.08;;;;;;;16.85;57.28;100605.49;2028252;87;27819;-65
2022/10/13 14:09:41;;;;;;;19.90;8.03;;;;;;;16.83;57.41;100607.44;2026220;87;29737;-66
2022/10/13 14:12:42;;;;;;;16.23;7.90;;;;;;;16.81;57.43;100613.44;2025835;87;30955;-66
2022/10/13 14:15:43;;;;;;;11.53;7.35;;;;;;;16.79;57.00;100607.27;2026481;87;33731;-66
2022/10/13 14:18:47;;;;;;;12.70;8.13;;;;;;;16.75;56.98;100601.69;2026109;87;29405;-66